Time;durP1;ratioP1;P1;durP2;ratioP2;P2;SDS_P1;SDS_P2;PMS_P1;PMS_P2;Temp;Humidity;BMP_temperature;BMP_pressure;BME280_temperature;BME280_humidity;BME280_pressure;Samples;Min_cycle;Max_cycle;Signal;HPM_P1;HPM_P2
2023/04/06 00:01:10;;;;;;;8.82;3.95;;;5.10;68.60;;;;;;4977191;28;20517;-89
2023/04/06 00:03:36;;;;;;;9.70;3.97;;;5.10;68.70;;;;;;4971883;28;20038;-89
2023/04/06 00:06:02;;;;;;;8.57;4.20;;;5.10;68.80;;;;;;4974204;28;20499;-89
2023/04/06 00:08:28;;;;;;;9.32;4.30;;;5.10;69.00;;;;;;4976752;28;20096;-89
2023/04/06 00:10:54;;;;;;;9.38;4.50;;;5.00;68.80;;;;;;4993132;28;20691;-89
2023/04/06 00:13:20;;;;;;;8.45;4.38;;;5.00;68.90;;;;;;4977709;28;20041;-88
2023/04/06 00:15:46;;;;;;;8.55;4.30;;;4.90;69.30;;;;;;4969659;28;20726;-89
2023/04/06 00:18:11;;;;;;;11.20;4.43;;;5.00;69.30;;;;;;4993730;28;20053;-88
2023/04/06 00:20:37;;;;;;;12.40;5.05;;;4.90;69.40;;;;;;4976503;28;20046;-88
2023/04/06 00:23:03;;;;;;;8.75;4.47;;;4.90;69.50;;;;;;4977378;28;20552;-89
2023/04/06 00:25:29;;;;;;;8.60;4.30;;;4.90;69.70;;;;;;4976804;28;20103;-89
2023/04/06 00:27:54;;;;;;;10.50;4.40;;;4.80;70.00;;;;;;4963412;28;20073;-88
2023/04/06 00:30:20;;;;;;;9.75;4.35;;;4.80;70.10;;;;;;4977909;28;20038;-88
2023/04/06 00:32:46;;;;;;;8.13;4.13;;;4.80;70.30;;;;;;4974438;28;20121;-89
2023/04/06 00:35:12;;;;;;;8.88;4.57;;;4.80;70.20;;;;;;4981379;28;20537;-88
2023/04/06 00:37:37;;;;;;;8.70;4.68;;;4.70;70.30;;;;;;4981415;28;20041;-88
2023/04/06 00:40:03;;;;;;;8.88;4.55;;;4.70;70.60;;;;;;4981010;28;20042;-88
2023/04/06 00:42:29;;;;;;;9.40;4.25;;;4.70;70.80;;;;;;4980922;28;20049;-89
2023/04/06 00:44:57;;;;;;;10.07;4.00;;;4.60;70.50;;;;;;4980310;28;20041;-89
2023/04/06 00:47:24;;;;;;;8.55;4.10;;;4.60;70.10;;;;;;4996081;28;20049;-88
2023/04/06 00:49:50;;;;;;;9.07;4.22;;;4.60;70.10;;;;;;4980830;28;20091;-88
2023/04/06 00:52:16;;;;;;;8.48;4.00;;;4.50;69.90;;;;;;4996234;28;20037;-88
2023/04/06 00:54:42;;;;;;;8.25;4.18;;;4.50;70.20;;;;;;4981135;28;20042;-87
2023/04/06 00:57:08;;;;;;;8.15;3.88;;;4.40;70.50;;;;;;4980315;28;20038;-87
2023/04/06 00:59:33;;;;;;;8.57;3.90;;;4.40;70.70;;;;;;4996763;28;20045;-87
2023/04/06 01:01:59;;;;;;;8.20;3.90;;;4.40;70.90;;;;;;4980345;28;20128;-87
2023/04/06 01:04:26;;;;;;;10.48;4.28;;;4.40;70.90;;;;;;4979438;28;20066;-87
2023/04/06 01:06:51;;;;;;;8.45;4.28;;;4.30;71.00;;;;;;4980302;28;20042;-88
2023/04/06 01:09:17;;;;;;;10.82;4.38;;;4.30;70.90;;;;;;4980594;28;20470;-88
2023/04/06 01:11:43;;;;;;;10.35;4.25;;;4.30;71.00;;;;;;4996893;28;20503;-88
2023/04/06 01:14:09;;;;;;;9.85;4.18;;;4.20;70.90;;;;;;4997180;28;20038;-87
2023/04/06 01:16:36;;;;;;;8.68;3.83;;;4.20;71.40;;;;;;4979226;28;20050;-87
2023/04/06 01:19:07;;;;;;;8.88;4.07;;;4.20;71.60;;;;;;4996863;28;20045;-87
2023/04/06 01:21:33;;;;;;;8.73;4.03;;;4.20;71.60;;;;;;4995516;28;20107;-88
2023/04/06 01:23:58;;;;;;;9.38;3.83;;;4.10;72.00;;;;;;4996300;28;20125;-87
2023/04/06 01:26:24;;;;;;;9.75;4.43;;;4.10;72.10;;;;;;4980144;28;20041;-87
2023/04/06 01:28:49;;;;;;;9.48;4.35;;;4.00;72.10;;;;;;4970644;28;20035;-87
2023/04/06 01:31:15;;;;;;;8.63;4.40;;;4.00;72.80;;;;;;4960747;28;20407;-87
2023/04/06 01:33:41;;;;;;;9.50;4.57;;;4.00;72.80;;;;;;4982867;28;20092;-87
2023/04/06 01:36:07;;;;;;;8.60;4.35;;;3.90;72.90;;;;;;4980304;28;20457;-87
2023/04/06 01:38:32;;;;;;;9.60;4.45;;;3.90;73.20;;;;;;4980372;28;20220;-87
2023/04/06 01:40:58;;;;;;;10.63;4.60;;;3.80;73.60;;;;;;4994352;28;20077;-87
2023/04/06 01:43:24;;;;;;;9.30;4.40;;;3.80;73.80;;;;;;4980307;28;20495;-87
2023/04/06 01:45:50;;;;;;;10.73;4.32;;;3.80;74.00;;;;;;5012457;28;20435;-88
2023/04/06 01:48:17;;;;;;;9.23;4.40;;;3.70;74.10;;;;;;4989661;28;20182;-87
2023/04/06 01:50:42;;;;;;;8.38;4.43;;;3.70;74.40;;;;;;4976359;28;20042;-87
2023/04/06 01:53:08;;;;;;;7.93;3.80;;;3.70;74.40;;;;;;4968515;28;20038;-87
2023/04/06 01:55:33;;;;;;;9.60;4.35;;;3.70;75.00;;;;;;4976921;28;20046;-87
2023/04/06 01:57:59;;;;;;;9.25;4.38;;;3.60;75.10;;;;;;4960854;28;20046;-88
2023/04/06 02:00:25;;;;;;;9.95;4.90;;;3.60;75.20;;;;;;4991257;28;20468;-87
2023/04/06 02:02:50;;;;;;;9.18;4.38;;;3.60;75.60;;;;;;4996449;28;20042;-87
2023/04/06 02:05:16;;;;;;;9.20;4.03;;;3.60;75.90;;;;;;4995502;28;20523;-87
2023/04/06 02:07:42;;;;;;;9.10;4.10;;;3.50;76.30;;;;;;4995653;28;20042;-87
2023/04/06 02:10:12;;;;;;;9.82;4.10;;;3.50;76.30;;;;;;4979299;28;20030;-87
2023/04/06 02:12:37;;;;;;;9.38;4.45;;;3.50;76.10;;;;;;4965748;28;20449;-87
2023/04/06 02:15:03;;;;;;;8.23;4.38;;;3.40;77.50;;;;;;4960290;28;20492;-87
2023/04/06 02:17:29;;;;;;;11.07;4.45;;;3.50;77.10;;;;;;5008149;28;20037;-87
2023/04/06 02:19:54;;;;;;;8.98;4.55;;;3.40;77.00;;;;;;4976336;28;20470;-87
2023/04/06 02:22:20;;;;;;;9.98;4.55;;;3.40;76.60;;;;;;4977139;28;20038;-87
2023/04/06 02:24:46;;;;;;;8.68;4.00;;;3.40;76.60;;;;;;4994611;28;20419;-87
2023/04/06 02:27:13;;;;;;;10.05;4.82;;;3.40;77.00;;;;;;4995480;28;20042;-87
2023/04/06 02:29:39;;;;;;;11.27;4.72;;;3.40;77.00;;;;;;4977932;28;20077;-87
2023/04/06 02:32:05;;;;;;;10.73;4.80;;;3.40;77.30;;;;;;4976599;28;20644;-87
2023/04/06 02:34:30;;;;;;;10.65;4.55;;;3.40;76.40;;;;;;4976105;28;20042;-87
2023/04/06 02:36:56;;;;;;;9.25;5.20;;;3.40;76.70;;;;;;4967689;28;20034;-87
2023/04/06 02:39:22;;;;;;;10.75;4.35;;;3.30;77.40;;;;;;4960251;28;20116;-87
2023/04/06 02:41:48;;;;;;;11.25;4.65;;;3.30;77.60;;;;;;4962288;28;20125;-87
2023/04/06 02:44:13;;;;;;;11.65;4.80;;;3.30;77.90;;;;;;4980665;28;20133;-87
2023/04/06 02:46:39;;;;;;;8.80;4.25;;;3.30;77.80;;;;;;4959711;28;20049;-87
2023/04/06 02:49:05;;;;;;;8.98;4.35;;;3.30;78.10;;;;;;4981597;28;20429;-87
2023/04/06 02:51:31;;;;;;;10.88;4.78;;;3.20;78.40;;;;;;4977387;28;20427;-87
2023/04/06 02:53:56;;;;;;;10.88;4.68;;;3.20;78.40;;;;;;4994191;28;20044;-87
2023/04/06 02:56:22;;;;;;;9.75;4.10;;;3.10;79.10;;;;;;4978468;28;20038;-87
2023/04/06 02:58:48;;;;;;;9.25;4.82;;;3.10;79.30;;;;;;4994844;28;20041;-87
2023/04/06 03:01:13;;;;;;;9.75;5.63;;;3.10;80.50;;;;;;4971414;28;20044;-87
2023/04/06 03:03:39;;;;;;;10.30;4.93;;;3.10;80.30;;;;;;4959542;28;20106;-87
2023/04/06 03:06:05;;;;;;;10.00;4.70;;;3.10;80.00;;;;;;4961933;28;20045;-87
2023/04/06 03:08:31;;;;;;;12.75;5.47;;;3.10;80.20;;;;;;4964159;28;20031;-87
2023/04/06 03:10:56;;;;;;;11.00;5.03;;;3.10;79.00;;;;;;4975129;28;20038;-87
2023/04/06 03:13:22;;;;;;;12.30;4.97;;;3.10;79.20;;;;;;4969506;28;20506;-88
2023/04/06 03:15:47;;;;;;;10.75;4.57;;;3.10;79.80;;;;;;4978749;28;20042;-87
2023/04/06 03:18:13;;;;;;;11.20;5.22;;;3.00;78.80;;;;;;4978320;28;20133;-87
2023/04/06 03:20:39;;;;;;;8.63;4.43;;;2.90;78.60;;;;;;4992051;28;20041;-87
2023/04/06 03:23:04;;;;;;;8.68;4.40;;;2.90;79.10;;;;;;4978270;28;20045;-87
2023/04/06 03:25:30;;;;;;;10.20;4.75;;;2.80;79.90;;;;;;4978268;28;20037;-87
2023/04/06 03:27:56;;;;;;;9.48;4.53;;;2.80;80.60;;;;;;4977253;28;20545;-87
2023/04/06 03:30:21;;;;;;;10.50;4.50;;;2.80;80.80;;;;;;4994086;28;20057;-87
2023/04/06 03:32:47;;;;;;;8.98;4.38;;;2.80;81.30;;;;;;4994395;28;20077;-87
2023/04/06 03:35:13;;;;;;;9.95;4.88;;;2.70;81.70;;;;;;4975594;28;20484;-87
2023/04/06 03:37:38;;;;;;;11.70;5.47;;;2.70;81.10;;;;;;4961673;28;20548;-87
2023/04/06 03:40:05;;;;;;;10.07;5.03;;;2.70;80.80;;;;;;4979713;28;20042;-87
2023/04/06 03:42:32;;;;;;;11.18;4.57;;;2.70;80.70;;;;;;4958477;28;20042;-87
2023/04/06 03:44:58;;;;;;;11.25;5.25;;;2.70;81.20;;;;;;5006791;28;20050;-87
2023/04/06 03:47:23;;;;;;;10.93;4.95;;;2.70;81.50;;;;;;4992386;28;20053;-87
2023/04/06 03:49:49;;;;;;;10.05;4.72;;;2.70;82.30;;;;;;4977566;28;20073;-89
2023/04/06 03:52:15;;;;;;;10.52;5.10;;;2.60;81.70;;;;;;4966273;28;20030;-89
2023/04/06 03:54:40;;;;;;;10.73;4.95;;;2.60;82.10;;;;;;4958602;28;20405;-89
2023/04/06 03:57:06;;;;;;;9.98;5.57;;;2.60;82.20;;;;;;4977254;28;20470;-89
2023/04/06 03:59:31;;;;;;;11.40;5.40;;;2.60;82.60;;;;;;4974411;28;20057;-89
2023/04/06 04:01:57;;;;;;;10.35;5.68;;;2.60;82.60;;;;;;5008787;28;20529;-88
2023/04/06 04:04:22;;;;;;;15.75;6.43;;;2.60;82.80;;;;;;4993243;28;20103;-89
2023/04/06 04:06:48;;;;;;;12.73;6.03;;;2.60;83.30;;;;;;4993688;28;20042;-89
2023/04/06 04:09:14;;;;;;;9.00;5.60;;;2.60;83.50;;;;;;4986480;28;20447;-89
2023/04/06 04:11:39;;;;;;;10.63;4.90;;;2.60;83.10;;;;;;4973562;28;20123;-89
2023/04/06 04:14:05;;;;;;;11.32;5.22;;;2.50;83.40;;;;;;4980716;28;20034;-89
2023/04/06 04:16:31;;;;;;;16.70;6.00;;;2.50;83.60;;;;;;4993484;28;20073;-88
2023/04/06 04:18:57;;;;;;;11.15;5.93;;;2.50;84.20;;;;;;4976627;28;20042;-88
2023/04/06 04:21:23;;;;;;;10.68;5.40;;;2.50;84.80;;;;;;4977133;28;20395;-88
2023/04/06 04:23:49;;;;;;;13.20;5.47;;;2.50;84.00;;;;;;4993646;28;20510;-88
2023/04/06 04:26:15;;;;;;;10.43;5.05;;;2.50;84.10;;;;;;4993163;28;20034;-89
2023/04/06 04:28:40;;;;;;;10.10;4.65;;;2.40;84.80;;;;;;4993513;28;20180;-88
2023/04/06 04:31:06;;;;;;;12.32;5.60;;;2.40;84.80;;;;;;4977126;28;20411;-89
2023/04/06 04:33:31;;;;;;;10.05;5.35;;;2.40;85.10;;;;;;4992841;28;20042;-88
2023/04/06 04:35:57;;;;;;;11.82;6.97;;;2.40;84.80;;;;;;4993302;28;20049;-88
2023/04/06 04:38:23;;;;;;;11.32;5.13;;;2.40;85.30;;;;;;4976459;28;20042;-88
2023/04/06 04:40:48;;;;;;;10.65;5.10;;;2.40;85.60;;;;;;4992977;28;20045;-88
2023/04/06 04:43:14;;;;;;;14.13;6.13;;;2.30;85.70;;;;;;4973604;28;20037;-89
2023/04/06 04:45:40;;;;;;;11.40;5.82;;;2.30;86.20;;;;;;4992332;28;20125;-88
2023/04/06 04:48:06;;;;;;;12.20;6.28;;;2.30;87.20;;;;;;4970417;28;20042;-88
2023/04/06 04:50:32;;;;;;;10.82;5.82;;;2.30;86.80;;;;;;5003631;28;20058;-89
2023/04/06 04:52:57;;;;;;;12.80;5.85;;;2.30;86.30;;;;;;4954873;28;20042;-88
2023/04/06 04:55:23;;;;;;;12.85;6.18;;;2.30;86.50;;;;;;4960070;28;20038;-88
2023/04/06 04:57:49;;;;;;;13.02;6.07;;;2.20;87.30;;;;;;4974372;28;20092;-88
2023/04/06 05:00:14;;;;;;;13.20;6.38;;;2.20;87.10;;;;;;4989552;28;20655;-88
2023/04/06 05:02:40;;;;;;;9.88;5.32;;;2.20;86.90;;;;;;4966955;28;20133;-88
2023/04/06 05:05:06;;;;;;;11.50;5.53;;;2.20;86.70;;;;;;4973328;28;20050;-90
2023/04/06 05:07:33;;;;;;;11.05;5.97;;;2.20;87.90;;;;;;4979567;28;20035;-88
2023/04/06 05:09:59;;;;;;;12.73;6.53;;;2.20;87.70;;;;;;4985798;28;20533;-89
2023/04/06 05:12:25;;;;;;;11.75;6.35;;;2.20;87.70;;;;;;4964203;28;20038;-89
2023/04/06 05:14:50;;;;;;;13.38;6.78;;;2.20;88.30;;;;;;4976957;28;20046;-88
2023/04/06 05:17:16;;;;;;;11.75;6.05;;;2.20;88.10;;;;;;4959793;28;20073;-88
2023/04/06 05:19:41;;;;;;;12.02;6.05;;;2.20;88.20;;;;;;4983731;28;20070;-88
2023/04/06 05:22:07;;;;;;;12.32;5.97;;;2.20;88.20;;;;;;4995321;28;20095;-87
2023/04/06 05:24:33;;;;;;;11.23;6.28;;;2.20;88.20;;;;;;4978922;28;20411;-87
2023/04/06 05:26:59;;;;;;;11.63;6.15;;;2.30;88.60;;;;;;4979458;28;20042;-88
2023/04/06 05:29:26;;;;;;;11.13;6.03;;;2.30;88.00;;;;;;4975535;28;20042;-89
2023/04/06 05:31:51;;;;;;;11.63;6.28;;;2.30;87.70;;;;;;4983501;28;20042;-90
2023/04/06 05:34:18;;;;;;;11.98;6.40;;;2.30;87.80;;;;;;4976202;28;20077;-89
2023/04/06 05:36:44;;;;;;;11.52;6.28;;;2.30;89.10;;;;;;4981487;28;20069;-88
2023/04/06 05:39:10;;;;;;;11.25;5.88;;;2.30;88.50;;;;;;4994960;28;20042;-89
2023/04/06 05:41:35;;;;;;;11.77;5.75;;;2.30;88.90;;;;;;4995177;28;20099;-90
2023/04/06 05:44:01;;;;;;;12.98;6.75;;;2.40;88.90;;;;;;4970442;28;20046;-90
2023/04/06 05:46:26;;;;;;;14.35;6.32;;;2.40;88.70;;;;;;4992628;28;20034;-89
2023/04/06 05:48:52;;;;;;;14.55;7.53;;;2.40;89.00;;;;;;4961125;28;20049;-88
2023/04/06 05:51:18;;;;;;;12.43;6.30;;;2.40;88.90;;;;;;4995088;28;20454;-89
2023/04/06 05:53:43;;;;;;;12.70;6.88;;;2.50;90.00;;;;;;4995490;28;20064;-89
2023/04/06 05:56:09;;;;;;;12.68;6.95;;;2.50;90.50;;;;;;4969998;28;20041;-89
2023/04/06 05:58:35;;;;;;;16.48;7.22;;;2.60;90.30;;;;;;4994521;28;20034;-89
2023/04/06 06:01:01;;;;;;;12.85;7.03;;;2.60;91.00;;;;;;4994119;28;20042;-89
2023/04/06 06:03:27;;;;;;;14.77;6.35;;;2.60;90.80;;;;;;4995393;28;20089;-90
2023/04/06 06:05:52;;;;;;;13.43;6.78;;;2.60;90.80;;;;;;4995878;28;20069;-89
2023/04/06 06:08:18;;;;;;;12.10;6.32;;;2.70;90.60;;;;;;4963775;28;20038;-91
2023/04/06 06:10:44;;;;;;;12.63;6.80;;;2.70;90.50;;;;;;4959880;28;20702;-89
2023/04/06 06:13:09;;;;;;;13.00;7.35;;;2.80;90.40;;;;;;4962054;28;20038;-89
2023/04/06 06:15:35;;;;;;;13.25;7.85;;;2.80;90.20;;;;;;4966814;28;20045;-89
2023/04/06 06:18:01;;;;;;;14.00;6.78;;;2.90;90.30;;;;;;5003533;28;20042;-89
2023/04/06 06:20:27;;;;;;;11.52;6.57;;;2.90;90.70;;;;;;5018907;28;20042;-89
2023/04/06 06:22:53;;;;;;;14.70;7.22;;;3.00;91.20;;;;;;4971594;28;20133;-89
2023/04/06 06:25:18;;;;;;;12.10;6.45;;;3.00;90.40;;;;;;4959783;28;20053;-89
2023/04/06 06:27:44;;;;;;;13.48;7.07;;;3.00;91.10;;;;;;4983809;28;20035;-89
2023/04/06 06:30:10;;;;;;;14.80;6.97;;;3.10;90.50;;;;;;4958944;28;20504;-88
2023/04/06 06:32:36;;;;;;;12.77;6.57;;;3.10;90.50;;;;;;4981841;28;20061;-89
2023/04/06 06:35:02;;;;;;;13.75;7.35;;;3.20;90.00;;;;;;4976649;28;20497;-90
2023/04/06 06:37:28;;;;;;;15.13;6.82;;;3.30;90.00;;;;;;4959915;28;20092;-89
2023/04/06 06:39:53;;;;;;;13.38;7.00;;;3.30;89.70;;;;;;4965671;28;20045;-89
2023/04/06 06:42:19;;;;;;;15.02;7.28;;;3.40;88.90;;;;;;4974970;28;20496;-90
2023/04/06 06:44:45;;;;;;;13.20;7.25;;;3.50;88.20;;;;;;4969263;28;20049;-90
2023/04/06 06:47:11;;;;;;;14.85;6.80;;;3.60;89.00;;;;;;4994420;28;20092;-90
2023/04/06 06:49:36;;;;;;;11.70;6.63;;;3.60;87.60;;;;;;5011910;28;20516;-90
2023/04/06 06:52:02;;;;;;;12.35;7.45;;;3.70;87.90;;;;;;4966229;28;20038;-90
2023/04/06 06:54:28;;;;;;;13.90;7.22;;;3.80;87.20;;;;;;4959227;28;20127;-90
2023/04/06 06:56:54;;;;;;;15.57;6.97;;;3.90;86.70;;;;;;4958711;28;20109;-90
2023/04/06 06:59:20;;;;;;;13.32;7.32;;;3.90;86.20;;;;;;4994449;28;20092;-89
2023/04/06 07:01:46;;;;;;;16.20;7.18;;;4.00;85.90;;;;;;4993132;28;20069;-89
2023/04/06 07:04:12;;;;;;;12.63;7.03;;;4.10;86.10;;;;;;4966180;28;20042;-90
2023/04/06 07:06:38;;;;;;;12.30;7.07;;;4.20;85.40;;;;;;4958822;28;20049;-91
2023/04/06 07:09:04;;;;;;;14.05;7.07;;;4.20;86.00;;;;;;4974433;28;20581;-91
2023/04/06 07:11:30;;;;;;;12.20;6.82;;;4.30;85.30;;;;;;4988833;28;20042;-90
2023/04/06 07:13:56;;;;;;;12.50;6.82;;;4.40;84.90;;;;;;4978083;28;20084;-90
2023/04/06 07:16:21;;;;;;;18.00;7.10;;;4.50;84.70;;;;;;4977553;28;20116;-90
2023/04/06 07:18:47;;;;;;;14.80;7.03;;;4.60;84.60;;;;;;5010466;28;20049;-90
2023/04/06 07:21:13;;;;;;;13.15;7.35;;;4.70;84.60;;;;;;5005568;28;20041;-90
2023/04/06 07:23:38;;;;;;;14.40;7.40;;;4.80;84.30;;;;;;4989111;28;20104;-90
2023/04/06 07:26:04;;;;;;;16.40;6.88;;;4.90;84.50;;;;;;4975043;28;20038;-90
2023/04/06 07:28:30;;;;;;;14.00;6.40;;;5.00;84.30;;;;;;4958330;28;20385;-90
2023/04/06 07:30:56;;;;;;;13.65;6.97;;;5.10;83.80;;;;;;4964320;28;20038;-91
2023/04/06 07:33:21;;;;;;;15.82;7.13;;;5.20;83.70;;;;;;4994003;28;20034;-90
2023/04/06 07:35:47;;;;;;;13.02;7.22;;;5.30;83.50;;;;;;4989724;28;20034;-90
2023/04/06 07:38:13;;;;;;;13.98;7.63;;;5.40;83.40;;;;;;4956017;28;20555;-91
2023/04/06 07:40:39;;;;;;;14.98;7.65;;;5.60;83.80;;;;;;4973668;28;20126;-91
2023/04/06 07:43:05;;;;;;;14.57;7.57;;;5.70;83.50;;;;;;4972650;28;20040;-91
2023/04/06 07:45:31;;;;;;;13.23;8.13;;;5.80;83.10;;;;;;4994137;28;20462;-91
2023/04/06 07:47:56;;;;;;;14.18;7.35;;;5.90;82.80;;;;;;4984943;28;20049;-91
2023/04/06 07:50:22;;;;;;;14.80;7.97;;;6.00;82.60;;;;;;4993632;28;20407;-91
2023/04/06 07:52:47;;;;;;;14.57;8.98;;;6.10;82.30;;;;;;4977914;28;20521;-91
2023/04/06 07:55:13;;;;;;;15.70;8.32;;;6.20;82.20;;;;;;4958671;28;20400;-90
2023/04/06 07:57:39;;;;;;;17.55;9.13;;;6.40;82.10;;;;;;4975117;28;20504;-91
2023/04/06 08:00:05;;;;;;;17.40;8.48;;;6.50;81.40;;;;;;4969157;28;20462;-91
2023/04/06 08:02:32;;;;;;;17.20;8.95;;;6.60;81.30;;;;;;4993272;28;20041;-91
2023/04/06 08:04:57;;;;;;;15.80;7.88;;;6.70;80.80;;;;;;4977193;28;20065;-91
2023/04/06 08:07:23;;;;;;;13.25;7.57;;;6.80;80.70;;;;;;4977423;28;20492;-91
2023/04/06 08:09:49;;;;;;;13.32;7.53;;;6.90;80.10;;;;;;4993795;28;20077;-91
2023/04/06 08:12:15;;;;;;;15.18;8.57;;;7.00;80.20;;;;;;4977374;28;20663;-91
2023/04/06 08:14:40;;;;;;;13.75;8.77;;;7.20;79.90;;;;;;4958823;28;20508;-91
2023/04/06 08:17:06;;;;;;;13.43;8.70;;;7.30;79.70;;;;;;4974559;28;20133;-91
2023/04/06 08:19:32;;;;;;;13.93;8.93;;;7.40;79.80;;;;;;4966838;28;20041;-91
2023/04/06 08:21:57;;;;;;;14.73;8.40;;;7.50;79.90;;;;;;4978131;28;20534;-91
2023/04/06 08:24:23;;;;;;;16.80;8.65;;;7.70;79.80;;;;;;4993463;28;20130;-91
2023/04/06 08:26:49;;;;;;;14.02;8.35;;;7.80;79.70;;;;;;4994223;28;20499;-91
2023/04/06 08:29:14;;;;;;;14.05;8.10;;;8.00;78.80;;;;;;4978332;28;20492;-91
2023/04/06 08:31:40;;;;;;;16.15;8.82;;;8.20;78.50;;;;;;4971593;28;20460;-91
2023/04/06 08:34:06;;;;;;;14.82;8.77;;;8.30;77.90;;;;;;4958697;28;20034;-92
2023/04/06 08:36:32;;;;;;;14.65;7.75;;;8.50;77.80;;;;;;5005238;28;20034;-91
2023/04/06 08:38:59;;;;;;;13.98;8.00;;;8.60;76.90;;;;;;5010904;28;20092;-91
2023/04/06 08:41:25;;;;;;;14.32;7.70;;;8.80;77.40;;;;;;4982251;28;20033;-91
2023/04/06 08:43:51;;;;;;;15.43;8.50;;;8.90;76.30;;;;;;4976554;28;20210;-91
2023/04/06 08:46:18;;;;;;;16.15;8.23;;;9.10;76.10;;;;;;4963868;28;20137;-89
2023/04/06 08:48:45;;;;;;;18.40;8.60;;;9.20;75.80;;;;;;4999399;28;20088;-89
2023/04/06 08:51:11;;;;;;;15.85;9.20;;;9.40;74.80;;;;;;4977101;28;20080;-89
2023/04/06 08:53:38;;;;;;;16.77;8.95;;;9.50;74.30;;;;;;4962017;28;20042;-90
2023/04/06 08:56:04;;;;;;;14.98;8.23;;;9.60;74.00;;;;;;4980862;28;20084;-89
2023/04/06 08:58:36;;;;;;;15.80;8.80;;;9.70;73.60;;;;;;4980366;28;20042;-89
2023/04/06 09:01:07;;;;;;;15.23;8.93;;;9.90;73.20;;;;;;4957549;28;20074;-88
2023/04/06 09:03:37;;;;;;;14.85;9.05;;;10.10;72.90;;;;;;4999237;28;20128;-89
2023/04/06 09:06:04;;;;;;;19.42;8.88;;;10.20;72.50;;;;;;4996021;28;20054;-89
2023/04/06 09:08:30;;;;;;;14.40;8.60;;;10.30;71.90;;;;;;4980370;28;20129;-89
2023/04/06 09:10:55;;;;;;;23.05;9.80;;;10.30;71.40;;;;;;4995409;28;20120;-90
2023/04/06 09:13:21;;;;;;;15.63;9.30;;;10.40;71.20;;;;;;4996074;28;20046;-89
2023/04/06 09:15:57;;;;;;;16.05;9.60;;;10.50;70.70;;;;;;4960677;28;20073;-89
2023/04/06 09:18:30;;;;;;;16.15;9.23;;;10.60;70.70;;;;;;5007190;28;20034;-89
2023/04/06 09:20:58;;;;;;;15.95;9.35;;;10.70;70.50;;;;;;5005065;28;20558;-89
2023/04/06 09:23:24;;;;;;;17.05;10.10;;;10.80;70.20;;;;;;4979973;28;20042;-88
2023/04/06 09:25:50;;;;;;;17.50;10.18;;;10.80;69.80;;;;;;4964050;28;20058;-88
2023/04/06 09:28:15;;;;;;;19.10;9.93;;;10.90;69.40;;;;;;4985589;28;20341;-88
2023/04/06 09:30:49;;;;;;;16.67;10.90;;;10.90;68.80;;;;;;5000287;28;20070;-88
2023/04/06 09:33:25;;;;;;;21.67;10.40;;;11.00;69.10;;;;;;4991024;28;20049;-89
2023/04/06 09:35:51;;;;;;;20.42;12.15;;;11.00;68.60;;;;;;4966670;28;20116;-88
2023/04/06 09:38:17;;;;;;;19.13;10.90;;;11.10;68.30;;;;;;4979597;28;20136;-88
2023/04/06 09:40:50;;;;;;;24.08;11.57;;;11.20;67.80;;;;;;4994772;28;20045;-88
2023/04/06 09:43:25;;;;;;;18.02;11.02;;;11.20;67.00;;;;;;5013169;28;20038;-88
2023/04/06 09:45:51;;;;;;;21.92;12.48;;;11.30;66.90;;;;;;5013899;28;20049;-88
2023/04/06 09:48:19;;;;;;;20.60;11.73;;;11.30;66.60;;;;;;4987764;28;20070;-88
2023/04/06 09:50:45;;;;;;;18.30;11.18;;;11.30;66.70;;;;;;4962452;28;20034;-89
2023/04/06 09:53:11;;;;;;;18.33;11.02;;;11.40;66.20;;;;;;5021457;28;20529;-90
2023/04/06 09:55:42;;;;;;;19.65;11.90;;;11.40;66.00;;;;;;4967576;28;20068;-89
2023/04/06 09:58:15;;;;;;;18.88;11.55;;;11.50;66.00;;;;;;4976130;28;20125;-88
2023/04/06 10:00:47;;;;;;;;;;;11.60;66.60;;;;;;4978932;28;20128;-87
2023/04/06 10:03:48;;;;;;;18.48;11.23;;;11.60;65.40;;;;;;4963714;28;20299;-88
2023/04/06 10:06:18;;;;;;;19.25;11.15;;;11.70;65.50;;;;;;4992503;28;20054;-88
2023/04/06 10:08:47;;;;;;;32.88;11.60;;;11.80;65.60;;;;;;4963416;28;20049;-88
2023/04/06 10:11:13;;;;;;;21.85;11.60;;;11.80;65.40;;;;;;4978164;28;20084;-88
2023/04/06 10:13:39;;;;;;;28.85;12.18;;;11.90;65.40;;;;;;4976967;28;20062;-88
2023/04/06 10:16:05;;;;;;;58.40;15.70;;;12.00;65.20;;;;;;4976527;28;20415;-87
2023/04/06 10:18:33;;;;;;;22.83;11.75;;;12.10;65.00;;;;;;4993369;28;20534;-87
2023/04/06 10:21:07;;;;;;;16.42;11.15;;;12.20;64.40;;;;;;4985843;28;20130;-87
2023/04/06 10:23:41;;;;;;;20.83;12.75;;;12.30;65.10;;;;;;4963484;28;20053;-87
2023/04/06 10:26:13;;;;;;;20.63;11.90;;;12.40;63.80;;;;;;4970294;28;20037;-87
2023/04/06 10:28:42;;;;;;;20.00;12.47;;;12.40;62.80;;;;;;4994906;28;20045;-87
2023/04/06 10:31:07;;;;;;;19.48;12.30;;;12.50;62.90;;;;;;4994468;28;20038;-88
2023/04/06 10:33:34;;;;;;;24.33;12.90;;;12.60;62.30;;;;;;4977649;28;20426;-88
2023/04/06 10:36:13;;;;;;;20.90;16.42;;;12.50;61.50;;;;;;4994810;28;20061;-89
2023/04/06 10:38:41;;;;;;;21.00;12.18;;;12.70;61.70;;;;;;4978290;28;20096;-88
2023/04/06 10:41:10;;;;;;;19.38;12.15;;;12.70;61.50;;;;;;4974997;28;20070;-89
2023/04/06 10:43:38;;;;;;;21.33;12.25;;;12.80;62.30;;;;;;4992853;28;20400;-89
2023/04/06 10:46:06;;;;;;;18.02;11.57;;;12.90;61.40;;;;;;4995042;28;20039;-89
2023/04/06 10:48:47;;;;;;;18.95;11.98;;;13.00;60.90;;;;;;4975374;28;20078;-89
2023/04/06 10:51:15;;;;;;;20.10;12.95;;;13.20;61.80;;;;;;4977100;28;20033;-89
2023/04/06 10:53:47;;;;;;;19.83;12.50;;;13.40;61.10;;;;;;4985632;28;20554;-89
2023/04/06 10:56:14;;;;;;;22.20;13.38;;;13.40;59.70;;;;;;4985651;28;20178;-89
2023/04/06 10:58:48;;;;;;;24.77;15.43;;;13.50;60.30;;;;;;5001821;28;20074;-89
2023/04/06 11:01:17;;;;;;;22.00;19.70;;;13.50;59.30;;;;;;4967821;28;20046;-89
2023/04/06 11:03:47;;;;;;;23.85;19.40;;;13.60;59.20;;;;;;4999807;28;20330;-89
2023/04/06 11:06:19;;;;;;;24.13;16.33;;;13.80;57.20;;;;;;5001147;28;20399;-89
2023/04/06 11:08:45;;;;;;;21.83;14.85;;;13.80;58.60;;;;;;4982230;28;20049;-89
2023/04/06 11:11:17;;;;;;;23.42;14.70;;;13.80;57.70;;;;;;4983299;28;20427;-89
2023/04/06 11:13:44;;;;;;;22.90;20.45;;;13.80;58.30;;;;;;4967501;28;20077;-89
2023/04/06 11:16:14;;;;;;;27.27;15.75;;;13.90;57.60;;;;;;4986204;28;20116;-88
2023/04/06 11:18:49;;;;;;;24.23;15.43;;;14.00;57.40;;;;;;4985636;28;20080;-88
2023/04/06 11:21:15;;;;;;;29.17;18.08;;;13.90;56.40;;;;;;4985261;28;20085;-88
2023/04/06 11:23:41;;;;;;;24.92;17.85;;;13.80;56.60;;;;;;4968772;28;20035;-89
2023/04/06 11:26:12;;;;;;;25.40;21.50;;;13.80;56.80;;;;;;4958748;28;20046;-89
2023/04/06 11:28:38;;;;;;;25.00;16.02;;;13.80;57.50;;;;;;4968694;28;20045;-89
2023/04/06 11:31:04;;;;;;;25.67;21.58;;;13.80;56.80;;;;;;4978127;28;20081;-88
2023/04/06 11:33:35;;;;;;;25.13;21.75;;;13.70;55.70;;;;;;4977623;28;20065;-89
2023/04/06 11:36:01;;;;;;;26.07;15.03;;;13.70;55.30;;;;;;4977790;28;20042;-89
2023/04/06 11:38:27;;;;;;;28.58;16.80;;;13.70;56.20;;;;;;4982304;28;20049;-89
2023/04/06 11:40:53;;;;;;;23.70;17.75;;;13.70;56.50;;;;;;4988476;28;20428;-89
2023/04/06 11:43:27;;;;;;;24.20;16.88;;;13.70;56.30;;;;;;4977534;28;20495;-88
2023/04/06 11:46:02;;;;;;;25.23;16.48;;;13.80;56.90;;;;;;5010328;28;20042;-88
2023/04/06 11:48:28;;;;;;;25.75;17.40;;;13.80;56.10;;;;;;4978095;28;20103;-88
2023/04/06 11:51:00;;;;;;;54.75;23.65;;;13.80;55.90;;;;;;4993101;28;20128;-87
2023/04/06 11:53:27;;;;;;;23.50;15.70;;;13.90;56.10;;;;;;5001142;28;20037;-88
2023/04/06 11:55:52;;;;;;;24.95;15.90;;;13.90;55.90;;;;;;4977693;28;20069;-88
2023/04/06 11:58:18;;;;;;;25.63;21.92;;;14.00;56.00;;;;;;4993162;28;20077;-88
2023/04/06 12:00:45;;;;;;;25.25;22.02;;;14.00;55.10;;;;;;4981196;28;20050;-88
2023/04/06 12:03:14;;;;;;;25.00;16.90;;;14.00;53.70;;;;;;4973965;28;20132;-88
2023/04/06 12:05:40;;;;;;;28.42;22.60;;;14.00;53.90;;;;;;4989839;28;20125;-89
2023/04/06 12:08:06;;;;;;;26.63;15.95;;;14.00;53.90;;;;;;4974305;28;20125;-89
2023/04/06 12:10:31;;;;;;;25.70;17.23;;;14.10;54.30;;;;;;4990028;28;20042;-89
2023/04/06 12:12:57;;;;;;;23.60;16.75;;;14.10;54.30;;;;;;4965218;28;20042;-89
2023/04/06 12:15:23;;;;;;;26.27;22.08;;;14.20;54.20;;;;;;5006776;28;20041;-89
2023/04/06 12:17:49;;;;;;;26.52;22.13;;;14.20;52.50;;;;;;4983610;28;20113;-89
2023/04/06 12:20:15;;;;;;;24.67;16.20;;;14.20;51.80;;;;;;4986282;28;20385;-88
2023/04/06 12:22:41;;;;;;;28.08;16.40;;;14.20;53.20;;;;;;4998355;28;20093;-88
2023/04/06 12:25:07;;;;;;;24.60;21.63;;;14.20;53.00;;;;;;4976764;28;20404;-88
2023/04/06 12:27:33;;;;;;;23.50;17.05;;;14.30;52.20;;;;;;4995535;28;20469;-88
2023/04/06 12:29:59;;;;;;;24.05;16.90;;;14.40;53.00;;;;;;4978865;28;20045;-89
2023/04/06 12:32:25;;;;;;;24.52;16.27;;;14.50;52.80;;;;;;5006405;28;20042;-89
2023/04/06 12:34:54;;;;;;;23.95;21.35;;;14.50;53.10;;;;;;4962688;28;20034;-89
2023/04/06 12:37:20;;;;;;;24.45;21.50;;;14.60;52.60;;;;;;4961495;28;20127;-89
2023/04/06 12:39:46;;;;;;;24.13;21.63;;;14.60;51.80;;;;;;4960452;28;20085;-89